sensor_id;sensor_type;location;lat;lon;timestamp;temperature;humidity
27368;DHT22;14839;48.106;11.618;2023-01-08T05:00:29;-0.60;94.60
27368;DHT22;14839;48.106;11.618;2023-01-08T05:02:55;-0.60;94.60
27368;DHT22;14839;48.106;11.618;2023-01-08T05:05:20;-0.60;94.60
27368;DHT22;14839;48.106;11.618;2023-01-08T05:07:46;-0.60;94.60
27368;DHT22;14839;48.106;11.618;2023-01-08T05:10:11;-0.60;94.60
27368;DHT22;14839;48.106;11.618;2023-01-08T05:12:37;-0.60;94.60
27368;DHT22;14839;48.106;11.618;2023-01-08T05:15:02;-0.60;94.60
27368;DHT22;14839;48.106;11.618;2023-01-08T05:17:28;-0.60;94.60
27368;DHT22;14839;48.106;11.618;2023-01-08T05:19:53;-0.60;94.60
27368;DHT22;14839;48.106;11.618;2023-01-08T05:22:19;-0.60;94.60
27368;DHT22;14839;48.106;11.618;2023-01-08T05:24:44;-0.70;94.60
27368;DHT22;14839;48.106;11.618;2023-01-08T05:27:10;-0.70;94.60
27368;DHT22;14839;48.106;11.618;2023-01-08T05:29:35;-0.70;94.60
27368;DHT22;14839;48.106;11.618;2023-01-08T05:32:01;-0.70;94.60
27368;DHT22;14839;48.106;11.618;2023-01-08T05:34:26;-0.80;94.60
27368;DHT22;14839;48.106;11.618;2023-01-08T05:36:52;-0.80;94.60
27368;DHT22;14839;48.106;11.618;2023-01-08T05:39:17;-0.80;94.60
27368;DHT22;14839;48.106;11.618;2023-01-08T05:41:43;-0.70;94.60
27368;DHT22;14839;48.106;11.618;2023-01-08T05:44:09;-0.70;94.60
27368;DHT22;14839;48.106;11.618;2023-01-08T05:46:34;-0.70;94.60
27368;DHT22;14839;48.106;11.618;2023-01-08T05:49:00;-0.70;94.60
27368;DHT22;14839;48.106;11.618;2023-01-08T05:51:25;-0.70;94.60
27368;DHT22;14839;48.106;11.618;2023-01-08T05:53:51;-0.60;94.60
27368;DHT22;14839;48.106;11.618;2023-01-08T05:56:17;-0.50;94.60
27368;DHT22;14839;48.106;11.618;2023-01-08T05:58:42;-0.50;94.60
27368;DHT22;14839;48.106;11.618;2023-01-08T06:01:10;-0.60;94.60
27368;DHT22;14839;48.106;11.618;2023-01-08T06:03:37;-0.60;94.60
27368;DHT22;14839;48.106;11.618;2023-01-08T06:06:04;-0.50;94.60
27368;DHT22;14839;48.106;11.618;2023-01-08T06:08:31;-0.60;94.60
27368;DHT22;14839;48.106;11.618;2023-01-08T06:11:01;-0.50;94.60
27368;DHT22;14839;48.106;11.618;2023-01-08T06:13:27;-0.60;94.60
27368;DHT22;14839;48.106;11.618;2023-01-08T06:15:53;-0.50;94.60
27368;DHT22;14839;48.106;11.618;2023-01-08T06:18:18;-0.50;94.60
27368;DHT22;14839;48.106;11.618;2023-01-08T06:20:44;-0.50;94.60
27368;DHT22;14839;48.106;11.618;2023-01-08T06:23:10;-0.50;94.60
27368;DHT22;14839;48.106;11.618;2023-01-08T06:25:35;-0.40;94.60
27368;DHT22;14839;48.106;11.618;2023-01-08T06:28:02;-0.30;94.60
27368;DHT22;14839;48.106;11.618;2023-01-08T06:30:27;-0.40;94.60
27368;DHT22;14839;48.106;11.618;2023-01-08T06:32:57;-0.40;94.60
27368;DHT22;14839;48.106;11.618;2023-01-08T06:35:24;-0.40;94.60
27368;DHT22;14839;48.106;11.618;2023-01-08T06:37:50;-0.40;94.60
27368;DHT22;14839;48.106;11.618;2023-01-08T06:40:15;-0.40;94.60
27368;DHT22;14839;48.106;11.618;2023-01-08T06:42:41;-0.40;94.60
27368;DHT22;14839;48.106;11.618;2023-01-08T06:45:09;-0.30;94.60
27368;DHT22;14839;48.106;11.618;2023-01-08T06:47:35;-0.30;94.60
27368;DHT22;14839;48.106;11.618;2023-01-08T06:50:00;-0.30;94.60
27368;DHT22;14839;48.106;11.618;2023-01-08T06:52:26;-0.30;94.60
27368;DHT22;14839;48.106;11.618;2023-01-08T06:54:52;-0.20;94.60
27368;DHT22;14839;48.106;11.618;2023-01-08T06:57:17;-0.20;94.60
27368;DHT22;14839;48.106;11.618;2023-01-08T06:59:43;-0.30;94.60
27368;DHT22;14839;48.106;11.618;2023-01-08T07:02:16;-0.30;94.60
27368;DHT22;14839;48.106;11.618;2023-01-08T07:04:42;-0.30;94.60
27368;DHT22;14839;48.106;11.618;2023-01-08T07:07:13;-0.30;94.60
27368;DHT22;14839;48.106;11.618;2023-01-08T07:09:43;-0.30;94.60
27368;DHT22;14839;48.106;11.618;2023-01-08T07:12:14;-0.30;94.60
27368;DHT22;14839;48.106;11.618;2023-01-08T07:14:40;-0.40;94.60
27368;DHT22;14839;48.106;11.618;2023-01-08T07:17:06;-0.40;94.60
27368;DHT22;14839;48.106;11.618;2023-01-08T07:19:32;-0.20;94.60
27368;DHT22;14839;48.106;11.618;2023-01-08T07:21:58;-0.10;94.60
27368;DHT22;14839;48.106;11.618;2023-01-08T07:24:23;-0.20;94.60
27368;DHT22;14839;48.106;11.618;2023-01-08T07:26:49;-0.20;94.60
27368;DHT22;14839;48.106;11.618;2023-01-08T07:29:14;-0.10;94.60
27368;DHT22;14839;48.106;11.618;2023-01-08T07:31:40;0.00;94.60
27368;DHT22;14839;48.106;11.618;2023-01-08T07:34:05;0.10;94.60
27368;DHT22;14839;48.106;11.618;2023-01-08T07:36:31;0.20;94.60
27368;DHT22;14839;48.106;11.618;2023-01-08T07:38:57;0.30;94.60
27368;DHT22;14839;48.106;11.618;2023-01-08T07:41:22;0.40;94.60
27368;DHT22;14839;48.106;11.618;2023-01-08T07:43:48;0.50;94.60
27368;DHT22;14839;48.106;11.618;2023-01-08T07:46:14;0.60;94.60
27368;DHT22;14839;48.106;11.618;2023-01-08T07:48:40;0.80;94.60
27368;DHT22;14839;48.106;11.618;2023-01-08T07:51:07;0.90;94.60
27368;DHT22;14839;48.106;11.618;2023-01-08T07:53:33;1.00;94.60
27368;DHT22;14839;48.106;11.618;2023-01-08T07:56:00;1.10;94.60
27368;DHT22;14839;48.106;11.618;2023-01-08T07:58:25;1.00;94.60
27368;DHT22;14839;48.106;11.618;2023-01-08T08:00:51;1.10;94.60
27368;DHT22;14839;48.106;11.618;2023-01-08T08:03:17;1.20;94.60
27368;DHT22;14839;48.106;11.618;2023-01-08T08:05:42;1.20;94.60
27368;DHT22;14839;48.106;11.618;2023-01-08T08:08:09;1.30;94.60
27368;DHT22;14839;48.106;11.618;2023-01-08T08:10:37;1.30;94.60
27368;DHT22;14839;48.106;11.618;2023-01-08T08:13:03;1.30;94.60
27368;DHT22;14839;48.106;11.618;2023-01-08T08:15:29;1.40;94.60
27368;DHT22;14839;48.106;11.618;2023-01-08T08:17:54;1.50;94.60
27368;DHT22;14839;48.106;11.618;2023-01-08T08:20:20;1.50;94.60
27368;DHT22;14839;48.106;11.618;2023-01-08T08:22:45;1.50;94.60
27368;DHT22;14839;48.106;11.618;2023-01-08T08:25:11;1.70;94.60
27368;DHT22;14839;48.106;11.618;2023-01-08T08:27:40;1.90;94.60
27368;DHT22;14839;48.106;11.618;2023-01-08T08:30:06;2.00;94.60
27368;DHT22;14839;48.106;11.618;2023-01-08T08:32:32;2.00;94.60
27368;DHT22;14839;48.106;11.618;2023-01-08T08:34:59;2.00;94.60
27368;DHT22;14839;48.106;11.618;2023-01-08T08:37:24;2.10;94.60
27368;DHT22;14839;48.106;11.618;2023-01-08T08:39:51;2.40;94.60
27368;DHT22;14839;48.106;11.618;2023-01-08T08:42:16;2.50;94.60
27368;DHT22;14839;48.106;11.618;2023-01-08T08:44:42;2.50;94.60
27368;DHT22;14839;48.106;11.618;2023-01-08T08:47:08;2.50;94.60
27368;DHT22;14839;48.106;11.618;2023-01-08T08:49:34;2.50;94.60
27368;DHT22;14839;48.106;11.618;2023-01-08T08:52:01;2.60;94.60
27368;DHT22;14839;48.106;11.618;2023-01-08T08:54:26;2.80;94.60
27368;DHT22;14839;48.106;11.618;2023-01-08T08:56:52;3.00;94.60
27368;DHT22;14839;48.106;11.618;2023-01-08T08:59:17;3.10;94.60
27368;DHT22;14839;48.106;11.618;2023-01-08T09:01:43;3.20;94.60
27368;DHT22;14839;48.106;11.618;2023-01-08T09:04:09;3.40;94.60
27368;DHT22;14839;48.106;11.618;2023-01-08T09:06:34;3.40;94.60
27368;DHT22;14839;48.106;11.618;2023-01-08T09:09:00;3.50;94.60
27368;DHT22;14839;48.106;11.618;2023-01-08T09:11:25;3.40;94.60
27368;DHT22;14839;48.106;11.618;2023-01-08T09:13:51;3.60;94.60
27368;DHT22;14839;48.106;11.618;2023-01-08T09:16:16;4.00;94.60
27368;DHT22;14839;48.106;11.618;2023-01-08T09:18:42;4.50;94.60
27368;DHT22;14839;48.106;11.618;2023-01-08T09:21:09;4.40;94.50
27368;DHT22;14839;48.106;11.618;2023-01-08T09:23:34;4.70;94.60
27368;DHT22;14839;48.106;11.618;2023-01-08T09:26:01;5.00;93.80
27368;DHT22;14839;48.106;11.618;2023-01-08T09:28:27;5.10;93.40
27368;DHT22;14839;48.106;11.618;2023-01-08T09:30:53;5.20;93.10
27368;DHT22;14839;48.106;11.618;2023-01-08T09:33:18;5.40;92.90
27368;DHT22;14839;48.106;11.618;2023-01-08T09:35:44;5.40;92.10
27368;DHT22;14839;48.106;11.618;2023-01-08T09:38:09;5.50;92.00
27368;DHT22;14839;48.106;11.618;2023-01-08T09:40:43;5.60;92.40
27368;DHT22;14839;48.106;11.618;2023-01-08T09:43:18;5.40;92.40
27368;DHT22;14839;48.106;11.618;2023-01-08T09:45:48;5.40;92.60
27368;DHT22;14839;48.106;11.618;2023-01-08T09:48:16;5.60;93.00
27368;DHT22;14839;48.106;11.618;2023-01-08T09:50:43;5.80;92.10
27368;DHT22;14839;48.106;11.618;2023-01-08T09:53:13;5.50;92.80
27368;DHT22;14839;48.106;11.618;2023-01-08T09:55:40;5.70;93.70
27368;DHT22;14839;48.106;11.618;2023-01-08T09:58:30;5.90;92.70
27368;DHT22;14839;48.106;11.618;2023-01-08T10:00:59;6.10;92.40
27368;DHT22;14839;48.106;11.618;2023-01-08T10:03:30;6.40;91.40
27368;DHT22;14839;48.106;11.618;2023-01-08T10:06:08;6.60;90.30
27368;DHT22;14839;48.106;11.618;2023-01-08T10:08:33;6.70;89.80
27368;DHT22;14839;48.106;11.618;2023-01-08T10:10:59;6.60;90.30
27368;DHT22;14839;48.106;11.618;2023-01-08T10:13:24;6.50;90.80
27368;DHT22;14839;48.106;11.618;2023-01-08T10:15:50;6.40;90.50
27368;DHT22;14839;48.106;11.618;2023-01-08T10:18:18;6.50;91.80
27368;DHT22;14839;48.106;11.618;2023-01-08T10:20:45;6.70;90.40
27368;DHT22;14839;48.106;11.618;2023-01-08T10:23:17;7.10;89.80
27368;DHT22;14839;48.106;11.618;2023-01-08T10:25:54;7.30;87.50
27368;DHT22;14839;48.106;11.618;2023-01-08T10:28:29;7.70;86.80
27368;DHT22;14839;48.106;11.618;2023-01-08T10:31:13;8.10;84.10
27368;DHT22;14839;48.106;11.618;2023-01-08T10:33:48;8.20;82.90
27368;DHT22;14839;48.106;11.618;2023-01-08T10:36:18;8.30;82.10
27368;DHT22;14839;48.106;11.618;2023-01-08T10:41:21;8.30;81.40
27368;DHT22;14839;48.106;11.618;2023-01-08T10:43:57;8.40;82.60
27368;DHT22;14839;48.106;11.618;2023-01-08T10:46:35;8.40;81.40
27368;DHT22;14839;48.106;11.618;2023-01-08T10:49:05;8.50;80.50
27368;DHT22;14839;48.106;11.618;2023-01-08T10:51:48;8.70;79.10
27368;DHT22;14839;48.106;11.618;2023-01-08T10:54:33;8.60;80.60
27368;DHT22;14839;48.106;11.618;2023-01-08T10:56:59;8.70;81.70
27368;DHT22;14839;48.106;11.618;2023-01-08T10:59:25;8.70;81.10
27368;DHT22;14839;48.106;11.618;2023-01-08T11:01:54;8.80;80.30
27368;DHT22;14839;48.106;11.618;2023-01-08T11:04:34;9.10;79.40
27368;DHT22;14839;48.106;11.618;2023-01-08T11:07:02;9.00;79.90
27368;DHT22;14839;48.106;11.618;2023-01-08T11:09:36;8.90;79.10
27368;DHT22;14839;48.106;11.618;2023-01-08T11:12:03;8.70;80.50
27368;DHT22;14839;48.106;11.618;2023-01-08T11:14:32;8.30;81.40
27368;DHT22;14839;48.106;11.618;2023-01-08T11:17:09;8.20;82.40
27368;DHT22;14839;48.106;11.618;2023-01-08T11:19:35;8.10;82.90
27368;DHT22;14839;48.106;11.618;2023-01-08T11:22:16;8.10;82.60
27368;DHT22;14839;48.106;11.618;2023-01-08T11:24:42;8.10;82.70
27368;DHT22;14839;48.106;11.618;2023-01-08T11:29:46;8.10;83.00
27368;DHT22;14839;48.106;11.618;2023-01-08T11:35:03;8.20;80.90
27368;DHT22;14839;48.106;11.618;2023-01-08T11:37:37;8.40;79.70
27368;DHT22;14839;48.106;11.618;2023-01-08T11:40:16;8.30;80.30
27368;DHT22;14839;48.106;11.618;2023-01-08T11:43:02;8.40;81.40
27368;DHT22;14839;48.106;11.618;2023-01-08T11:57:01;9.00;78.80
27368;DHT22;14839;48.106;11.618;2023-01-08T12:03:07;9.40;77.00
27368;DHT22;14839;48.106;11.618;2023-01-08T12:16:17;9.70;78.40
27368;DHT22;14839;48.106;11.618;2023-01-08T12:21:49;9.60;78.80
27368;DHT22;14839;48.106;11.618;2023-01-08T12:24:46;9.50;79.30
27368;DHT22;14839;48.106;11.618;2023-01-08T12:27:43;9.30;80.50
27368;DHT22;14839;48.106;11.618;2023-01-08T12:32:42;9.00;79.00
27368;DHT22;14839;48.106;11.618;2023-01-08T12:35:40;9.10;78.20
27368;DHT22;14839;48.106;11.618;2023-01-08T12:38:15;9.10;79.10
27368;DHT22;14839;48.106;11.618;2023-01-08T12:43:23;8.90;79.00
27368;DHT22;14839;48.106;11.618;2023-01-08T12:45:53;8.90;78.80
27368;DHT22;14839;48.106;11.618;2023-01-08T12:48:22;8.90;78.20
27368;DHT22;14839;48.106;11.618;2023-01-08T12:50:56;8.90;78.50
27368;DHT22;14839;48.106;11.618;2023-01-08T12:56:15;8.90;78.20
27368;DHT22;14839;48.106;11.618;2023-01-08T13:01:30;8.90;78.10
27368;DHT22;14839;48.106;11.618;2023-01-08T13:03:57;8.80;78.80
27368;DHT22;14839;48.106;11.618;2023-01-08T13:06:24;8.80;78.10
27368;DHT22;14839;48.106;11.618;2023-01-08T13:08:52;8.80;78.10
27368;DHT22;14839;48.106;11.618;2023-01-08T13:11:30;8.70;77.90
27368;DHT22;14839;48.106;11.618;2023-01-08T13:14:08;8.70;78.80
27368;DHT22;14839;48.106;11.618;2023-01-08T13:16:39;8.80;78.40
27368;DHT22;14839;48.106;11.618;2023-01-08T13:19:06;8.80;78.40
27368;DHT22;14839;48.106;11.618;2023-01-08T13:24:03;8.80;78.70
27368;DHT22;14839;48.106;11.618;2023-01-08T13:26:34;8.70;79.70
27368;DHT22;14839;48.106;11.618;2023-01-08T13:29:25;8.70;79.90
27368;DHT22;14839;48.106;11.618;2023-01-08T13:31:51;8.70;80.60
27368;DHT22;14839;48.106;11.618;2023-01-08T13:34:32;8.70;80.80
27368;DHT22;14839;48.106;11.618;2023-01-08T13:37:00;8.70;80.60
27368;DHT22;14839;48.106;11.618;2023-01-08T13:39:37;8.70;80.90
27368;DHT22;14839;48.106;11.618;2023-01-08T13:42:22;8.70;81.10
27368;DHT22;14839;48.106;11.618;2023-01-08T13:44:51;8.70;80.80
27368;DHT22;14839;48.106;11.618;2023-01-08T13:47:18;8.60;81.20
27368;DHT22;14839;48.106;11.618;2023-01-08T13:49:48;8.50;83.00
27368;DHT22;14839;48.106;11.618;2023-01-08T13:52:31;8.30;86.20
27368;DHT22;14839;48.106;11.618;2023-01-08T13:55:02;8.30;85.40
27368;DHT22;14839;48.106;11.618;2023-01-08T13:57:36;8.40;84.10
27368;DHT22;14839;48.106;11.618;2023-01-08T14:00:04;8.30;84.50
27368;DHT22;14839;48.106;11.618;2023-01-08T14:02:42;8.20;85.70
27368;DHT22;14839;48.106;11.618;2023-01-08T14:05:27;8.20;86.80
27368;DHT22;14839;48.106;11.618;2023-01-08T14:07:53;8.20;86.50
27368;DHT22;14839;48.106;11.618;2023-01-08T14:10:19;8.20;86.00
27368;DHT22;14839;48.106;11.618;2023-01-08T14:12:45;8.30;85.10
27368;DHT22;14839;48.106;11.618;2023-01-08T14:15:21;8.30;84.70
27368;DHT22;14839;48.106;11.618;2023-01-08T14:17:47;8.20;84.70
27368;DHT22;14839;48.106;11.618;2023-01-08T14:20:20;8.20;85.10
27368;DHT22;14839;48.106;11.618;2023-01-08T14:22:47;8.20;85.00
27368;DHT22;14839;48.106;11.618;2023-01-08T14:25:16;8.20;86.50
27368;DHT22;14839;48.106;11.618;2023-01-08T14:27:42;8.10;88.10
27368;DHT22;14839;48.106;11.618;2023-01-08T14:30:18;8.00;89.60
27368;DHT22;14839;48.106;11.618;2023-01-08T14:32:44;8.00;89.30
27368;DHT22;14839;48.106;11.618;2023-01-08T14:35:14;8.00;88.70
27368;DHT22;14839;48.106;11.618;2023-01-08T14:37:40;8.00;89.50
27368;DHT22;14839;48.106;11.618;2023-01-08T14:40:13;8.00;88.70
27368;DHT22;14839;48.106;11.618;2023-01-08T14:42:41;8.10;88.30
27368;DHT22;14839;48.106;11.618;2023-01-08T14:45:21;8.10;88.00
27368;DHT22;14839;48.106;11.618;2023-01-08T14:47:49;8.20;87.40
27368;DHT22;14839;48.106;11.618;2023-01-08T14:50:36;8.30;86.60
27368;DHT22;14839;48.106;11.618;2023-01-08T14:53:26;8.40;85.90
27368;DHT22;14839;48.106;11.618;2023-01-08T14:55:55;8.40;85.40
27368;DHT22;14839;48.106;11.618;2023-01-08T14:58:24;8.50;85.30
27368;DHT22;14839;48.106;11.618;2023-01-08T15:00:53;8.30;85.10
27368;DHT22;14839;48.106;11.618;2023-01-08T15:03:33;8.20;86.00
27368;DHT22;14839;48.106;11.618;2023-01-08T15:06:00;8.20;86.80
27368;DHT22;14839;48.106;11.618;2023-01-08T15:08:41;8.00;88.60
27368;DHT22;14839;48.106;11.618;2023-01-08T15:13:48;7.80;90.30
27368;DHT22;14839;48.106;11.618;2023-01-08T15:16:36;7.80;90.50
27368;DHT22;14839;48.106;11.618;2023-01-08T15:19:18;7.70;90.70
27368;DHT22;14839;48.106;11.618;2023-01-08T15:21:47;7.60;90.70
27368;DHT22;14839;48.106;11.618;2023-01-08T15:24:26;7.60;90.50
27368;DHT22;14839;48.106;11.618;2023-01-08T15:26:53;7.50;91.10
27368;DHT22;14839;48.106;11.618;2023-01-08T15:29:25;7.50;91.50
27368;DHT22;14839;48.106;11.618;2023-01-08T15:31:52;7.40;91.50
27368;DHT22;14839;48.106;11.618;2023-01-08T15:34:19;7.40;91.20
27368;DHT22;14839;48.106;11.618;2023-01-08T15:36:45;7.30;91.70
27368;DHT22;14839;48.106;11.618;2023-01-08T15:39:12;7.20;91.60
27368;DHT22;14839;48.106;11.618;2023-01-08T15:41:38;7.10;91.60
27368;DHT22;14839;48.106;11.618;2023-01-08T15:44:24;7.00;92.70
27368;DHT22;14839;48.106;11.618;2023-01-08T15:46:53;6.90;93.90
27368;DHT22;14839;48.106;11.618;2023-01-08T15:49:19;6.70;93.20
27368;DHT22;14839;48.106;11.618;2023-01-08T15:51:47;6.70;93.10
27368;DHT22;14839;48.106;11.618;2023-01-08T15:54:13;6.80;92.60
27368;DHT22;14839;48.106;11.618;2023-01-08T15:56:40;6.80;93.30
27368;DHT22;14839;48.106;11.618;2023-01-08T15:59:06;6.80;92.70
27368;DHT22;14839;48.106;11.618;2023-01-08T16:01:32;6.80;92.50
27368;DHT22;14839;48.106;11.618;2023-01-08T16:03:58;6.70;93.50
27368;DHT22;14839;48.106;11.618;2023-01-08T16:06:24;6.70;94.00
27368;DHT22;14839;48.106;11.618;2023-01-08T16:08:50;6.60;93.90
27368;DHT22;14839;48.106;11.618;2023-01-08T16:11:16;6.50;93.90
27368;DHT22;14839;48.106;11.618;2023-01-08T16:13:42;6.40;94.30
27368;DHT22;14839;48.106;11.618;2023-01-08T16:16:09;6.30;94.50
27368;DHT22;14839;48.106;11.618;2023-01-08T16:18:36;6.20;94.40
27368;DHT22;14839;48.106;11.618;2023-01-08T16:21:03;6.10;94.60
27368;DHT22;14839;48.106;11.618;2023-01-08T16:23:28;5.90;94.60
27368;DHT22;14839;48.106;11.618;2023-01-08T16:25:54;5.80;94.60
27368;DHT22;14839;48.106;11.618;2023-01-08T16:28:19;5.70;94.60
27368;DHT22;14839;48.106;11.618;2023-01-08T16:30:45;5.60;94.60
27368;DHT22;14839;48.106;11.618;2023-01-08T16:33:10;5.50;94.60
27368;DHT22;14839;48.106;11.618;2023-01-08T16:35:36;5.40;94.60
27368;DHT22;14839;48.106;11.618;2023-01-08T16:38:01;5.20;94.60
27368;DHT22;14839;48.106;11.618;2023-01-08T16:40:27;5.20;94.60
27368;DHT22;14839;48.106;11.618;2023-01-08T16:42:53;5.30;94.60
27368;DHT22;14839;48.106;11.618;2023-01-08T16:45:24;5.20;94.60
27368;DHT22;14839;48.106;11.618;2023-01-08T16:47:49;5.10;94.60
27368;DHT22;14839;48.106;11.618;2023-01-08T16:50:16;5.00;94.60
27368;DHT22;14839;48.106;11.618;2023-01-08T16:52:42;5.10;94.60
27368;DHT22;14839;48.106;11.618;2023-01-08T16:55:08;5.10;94.60
27368;DHT22;14839;48.106;11.618;2023-01-08T16:57:35;5.20;94.60
27368;DHT22;14839;48.106;11.618;2023-01-08T17:00:01;5.20;94.60
27368;DHT22;14839;48.106;11.618;2023-01-08T17:02:26;5.20;94.60
27368;DHT22;14839;48.106;11.618;2023-01-08T17:04:52;5.20;94.60
27368;DHT22;14839;48.106;11.618;2023-01-08T17:07:17;5.00;94.60
27368;DHT22;14839;48.106;11.618;2023-01-08T17:09:43;5.00;94.60
27368;DHT22;14839;48.106;11.618;2023-01-08T17:12:09;5.00;94.60
27368;DHT22;14839;48.106;11.618;2023-01-08T17:14:34;4.90;94.60
27368;DHT22;14839;48.106;11.618;2023-01-08T17:17:01;4.80;94.60
27368;DHT22;14839;48.106;11.618;2023-01-08T17:19:26;4.80;94.60
27368;DHT22;14839;48.106;11.618;2023-01-08T17:21:52;4.70;94.60
27368;DHT22;14839;48.106;11.618;2023-01-08T17:24:17;4.70;94.60
27368;DHT22;14839;48.106;11.618;2023-01-08T17:26:43;4.70;94.60
27368;DHT22;14839;48.106;11.618;2023-01-08T17:29:09;4.70;94.60
27368;DHT22;14839;48.106;11.618;2023-01-08T17:31:34;4.60;94.60
27368;DHT22;14839;48.106;11.618;2023-01-08T17:34:05;4.60;94.60
27368;DHT22;14839;48.106;11.618;2023-01-08T17:36:31;4.50;94.60
27368;DHT22;14839;48.106;11.618;2023-01-08T17:38:58;4.40;94.60
27368;DHT22;14839;48.106;11.618;2023-01-08T17:41:24;4.40;94.60
27368;DHT22;14839;48.106;11.618;2023-01-08T17:44:10;4.50;94.60
27368;DHT22;14839;48.106;11.618;2023-01-08T17:46:38;4.50;94.60
27368;DHT22;14839;48.106;11.618;2023-01-08T17:49:07;4.50;94.60
27368;DHT22;14839;48.106;11.618;2023-01-08T17:51:33;4.50;94.60
27368;DHT22;14839;48.106;11.618;2023-01-08T17:53:59;4.50;94.60
27368;DHT22;14839;48.106;11.618;2023-01-08T17:56:25;4.50;94.60
27368;DHT22;14839;48.106;11.618;2023-01-08T17:58:51;4.50;94.60
27368;DHT22;14839;48.106;11.618;2023-01-08T18:01:17;4.50;94.60
27368;DHT22;14839;48.106;11.618;2023-01-08T18:03:43;4.50;94.60
27368;DHT22;14839;48.106;11.618;2023-01-08T18:06:10;4.50;94.60
27368;DHT22;14839;48.106;11.618;2023-01-08T18:08:36;4.50;94.60
27368;DHT22;14839;48.106;11.618;2023-01-08T18:11:04;4.40;94.60
27368;DHT22;14839;48.106;11.618;2023-01-08T18:13:31;4.40;94.60
27368;DHT22;14839;48.106;11.618;2023-01-08T18:16:04;4.40;94.60
27368;DHT22;14839;48.106;11.618;2023-01-08T18:18:30;4.40;94.60
27368;DHT22;14839;48.106;11.618;2023-01-08T18:20:56;4.40;94.60
27368;DHT22;14839;48.106;11.618;2023-01-08T18:23:21;4.40;94.60
27368;DHT22;14839;48.106;11.618;2023-01-08T18:25:47;4.40;94.60
27368;DHT22;14839;48.106;11.618;2023-01-08T18:28:13;4.50;94.60
27368;DHT22;14839;48.106;11.618;2023-01-08T18:30:38;4.50;94.60
27368;DHT22;14839;48.106;11.618;2023-01-08T18:33:04;4.60;94.60
27368;DHT22;14839;48.106;11.618;2023-01-08T18:35:31;4.60;94.60
27368;DHT22;14839;48.106;11.618;2023-01-08T18:37:57;4.50;94.60
27368;DHT22;14839;48.106;11.618;2023-01-08T18:40:23;4.40;94.60
27368;DHT22;14839;48.106;11.618;2023-01-08T18:42:49;4.40;94.60
27368;DHT22;14839;48.106;11.618;2023-01-08T18:45:15;4.40;94.60
27368;DHT22;14839;48.106;11.618;2023-01-08T18:47:41;4.40;94.60
27368;DHT22;14839;48.106;11.618;2023-01-08T18:50:07;4.30;94.60
27368;DHT22;14839;48.106;11.618;2023-01-08T18:52:34;4.30;94.60
27368;DHT22;14839;48.106;11.618;2023-01-08T18:55:00;4.30;94.60
27368;DHT22;14839;48.106;11.618;2023-01-08T18:57:26;4.30;94.60
27368;DHT22;14839;48.106;11.618;2023-01-08T18:59:52;4.30;94.60
27368;DHT22;14839;48.106;11.618;2023-01-08T19:02:23;4.30;94.60
27368;DHT22;14839;48.106;11.618;2023-01-08T19:04:49;4.30;94.60
27368;DHT22;14839;48.106;11.618;2023-01-08T19:07:16;4.30;94.60
27368;DHT22;14839;48.106;11.618;2023-01-08T19:09:42;4.30;94.60
27368;DHT22;14839;48.106;11.618;2023-01-08T19:12:08;4.40;94.60
27368;DHT22;14839;48.106;11.618;2023-01-08T19:14:34;4.40;94.60
27368;DHT22;14839;48.106;11.618;2023-01-08T19:16:59;4.40;94.60
27368;DHT22;14839;48.106;11.618;2023-01-08T19:19:26;4.40;94.60
27368;DHT22;14839;48.106;11.618;2023-01-08T19:21:52;4.40;94.60
27368;DHT22;14839;48.106;11.618;2023-01-08T19:24:17;4.40;94.60
27368;DHT22;14839;48.106;11.618;2023-01-08T19:26:43;4.40;94.60
27368;DHT22;14839;48.106;11.618;2023-01-08T19:29:09;4.40;94.60
27368;DHT22;14839;48.106;11.618;2023-01-08T19:31:35;4.40;94.60
27368;DHT22;14839;48.106;11.618;2023-01-08T19:34:02;4.40;94.60
27368;DHT22;14839;48.106;11.618;2023-01-08T19:36:28;4.40;94.60
27368;DHT22;14839;48.106;11.618;2023-01-08T19:38:54;4.40;94.60
27368;DHT22;14839;48.106;11.618;2023-01-08T19:41:20;4.40;94.60
27368;DHT22;14839;48.106;11.618;2023-01-08T19:44:04;4.30;94.60
27368;DHT22;14839;48.106;11.618;2023-01-08T19:46:30;4.20;94.60
27368;DHT22;14839;48.106;11.618;2023-01-08T19:48:56;4.30;94.60
27368;DHT22;14839;48.106;11.618;2023-01-08T19:51:23;4.20;94.60
27368;DHT22;14839;48.106;11.618;2023-01-08T19:53:50;4.20;94.60
27368;DHT22;14839;48.106;11.618;2023-01-08T19:56:15;4.20;94.60
27368;DHT22;14839;48.106;11.618;2023-01-08T19:58:41;4.20;94.60
27368;DHT22;14839;48.106;11.618;2023-01-08T20:01:18;4.20;94.60
27368;DHT22;14839;48.106;11.618;2023-01-08T20:03:45;4.10;94.60
27368;DHT22;14839;48.106;11.618;2023-01-08T20:06:17;4.10;94.60
27368;DHT22;14839;48.106;11.618;2023-01-08T20:08:51;4.10;94.60
27368;DHT22;14839;48.106;11.618;2023-01-08T20:11:19;4.10;94.60
27368;DHT22;14839;48.106;11.618;2023-01-08T20:13:45;4.10;94.60
27368;DHT22;14839;48.106;11.618;2023-01-08T20:16:13;4.20;94.60
27368;DHT22;14839;48.106;11.618;2023-01-08T20:18:39;4.20;94.60
27368;DHT22;14839;48.106;11.618;2023-01-08T20:21:11;4.20;94.60
27368;DHT22;14839;48.106;11.618;2023-01-08T20:23:37;4.10;94.60
27368;DHT22;14839;48.106;11.618;2023-01-08T20:26:05;4.00;94.60
27368;DHT22;14839;48.106;11.618;2023-01-08T20:28:35;4.00;94.60
27368;DHT22;14839;48.106;11.618;2023-01-08T20:31:09;3.90;94.60
27368;DHT22;14839;48.106;11.618;2023-01-08T20:33:36;3.90;94.60
27368;DHT22;14839;48.106;11.618;2023-01-08T20:36:20;3.90;94.60
27368;DHT22;14839;48.106;11.618;2023-01-08T20:38:50;3.90;94.60
27368;DHT22;14839;48.106;11.618;2023-01-08T20:41:16;3.90;94.60
27368;DHT22;14839;48.106;11.618;2023-01-08T20:43:41;4.00;94.60
27368;DHT22;14839;48.106;11.618;2023-01-08T20:46:08;4.00;94.60
27368;DHT22;14839;48.106;11.618;2023-01-08T20:48:34;4.00;94.60
27368;DHT22;14839;48.106;11.618;2023-01-08T20:51:02;4.10;94.60
27368;DHT22;14839;48.106;11.618;2023-01-08T20:53:28;4.20;94.60
27368;DHT22;14839;48.106;11.618;2023-01-08T20:55:56;4.20;94.60
27368;DHT22;14839;48.106;11.618;2023-01-08T20:58:22;4.20;94.60
27368;DHT22;14839;48.106;11.618;2023-01-08T21:00:47;4.20;94.60
27368;DHT22;14839;48.106;11.618;2023-01-08T21:03:13;4.20;94.60
27368;DHT22;14839;48.106;11.618;2023-01-08T21:05:39;4.20;94.60
27368;DHT22;14839;48.106;11.618;2023-01-08T21:08:06;4.20;94.60
27368;DHT22;14839;48.106;11.618;2023-01-08T21:10:32;4.20;94.60
27368;DHT22;14839;48.106;11.618;2023-01-08T21:12:58;4.20;94.60
27368;DHT22;14839;48.106;11.618;2023-01-08T21:15:24;4.20;94.60
27368;DHT22;14839;48.106;11.618;2023-01-08T21:17:50;4.20;94.60
27368;DHT22;14839;48.106;11.618;2023-01-08T21:20:16;4.40;94.60
27368;DHT22;14839;48.106;11.618;2023-01-08T21:22:43;4.40;94.60
27368;DHT22;14839;48.106;11.618;2023-01-08T21:25:09;4.40;94.60
27368;DHT22;14839;48.106;11.618;2023-01-08T21:27:35;4.40;94.60